Aviation Digital Data Service (ADDS)

Output produced by TAFs form (1324 UTC 25 October 2014)
found at http://aviationweather.gov/adds/tafs/
 
KGUP 251121Z 2512/2612 VRB06KT P6SM SKC 
     FM251800 23010KT P6SM SKC 
     FM252000 23012G20KT P6SM SKC 
     FM260200 VRB06KT P6SM FEW120